Airfield :
LOGIN :

Register | Disclaimer

   EN    FR    IT 

 










Legend :    VFR   Marginal VFR   IFR   Intensive IFR   Very Intensive IFR
Visi :
Ceiling :
>= 8 km
>= 3000ft
5 to 8 km
1000 to 3000 ft
1500m to 5 km
500 to 1000 ft
800 to 1500m
200 to 500 ft
< 800m
< 200 ft
Symbols :   Thunderstorms  Fog  Heavy snow  Heavy precipitations  Wind > 20 kt
SIGMETs :     Misc.  Thunderstorms  Icing  Turbulence  Mountain Waves  Volcanic Ashes







- Airport Elevation : 14 ft
- IATA code : URE


EEKE - Kuressaare

CURRENT METAR :
  • 211050Z 24009KT 200V290 9999 FEW010 OVC048 05/03 Q1019 R17/290195

EXPIRED METARs :
  • 210950Z 24009KT 210V280 9999 SCT010 05/03 Q1019 R17/290195 R17/290195
  • 210850Z 24007KT 190V270 9999 FEW008 04/03 Q1020 R17/290195

TAF TAF EEKE
Valid from the 21 at 07:00 until the 21 at 13:00 UTC


210600Z 2107/2113 24010KT 9999 SCT030
TEMPO 2111/2113 4000 SHRA BKN008 SCT015CB
No reported NOTAMs for that airfield.



MET'MAP, your aeronautical weather chart ! - Copyright ORBIFLY December 2007 - Disclaimer

ORBIFLY MET'MAP TEAM :

Programming & Development : Alexandra Zaïnal
Concept & Development : Baudouin d'Aumeries
Co-Development & Prog : Marc-Olivier Méhu
Technical & hardware support : Manuel Goepfert

Contact : metmap@orbifly.com




SOURCES & CREDITS :

   NOAA